Terminal Aerodrome Forecast
Issued by NWS Shreveport, LA

Home | Current Version | Previous Version | Text Only | Print | Product List | Glossary On
Versions: 1 2 3 4 5 6 7 8 9 10 11 12 13
000
FTUS44 KSHV 201100
TAFTXK
TAF
KTXK 201120Z 2012/2112 04005KT 5SM BR OVC008
     FM201600 06004KT 6SM BR SCT012 OVC025
     FM201800 09004KT P6SM BKN025
     FM210500 11004KT P6SM BKN010
     FM210900 11003KT 4SM BR OVC003=

USA.gov is the U.S. government's official web portal to all federal, state and local government web resources and services.